Nemencine, Lithuania
Current Conditions -  °F | °C
As of 10:50 AM on Thursday 23 Oct 2014 (Local Time) from EYVI Reporting Station
Clear Clear  
Wind Chill: 16°   Ceiling: Unl
Heat Index: 25°   Visibility: 6mi
Dew Point: 19°   Wind: 8mph
Humidity: 80%   Direction: 90°E
Pressure: 30.27"   Gusts: NA
Location:  54.85°N, 25.48°E
Report Text: EYVI 230750Z 09007KT 050V130 CAVOK M04/M07 Q1025 NOSIG
Loading
Personal Weather Stations






























Interactive Weather Map
Tropical Storm Tracking
New forecast layout! Learn more

10-Day Weather Forecast

Advertisements
Track Severe Weather on mobile